Aeroporto :
LOGIN :

Iscrizione | Disclaimer

   EN    FR    IT 

 










Sommario :    VFR   VFR Marginale   IFR   IFR Intensivo   IFR Molto Intensivo
Visibilità : 
Base nubi : 
>= 8 km
>= 3000ft
5 / 8 km
1000 / 3000 ft
1500m / 5 km
500 / 1000 ft
800 / 1500m
200 / 500 ft
< 800m
< 200 ft
Simboli :   Temporali  Nebbia  Neve Forte  Precipitazioni Forti  Vento > 20 kt
SIGMETs :   Varie  Temporali  Ghiacco  Turbolenza  Onda orograficha  Ceneri Vulcaniche






- Altitudine del aeroporto : 158 ft
- Codice IATA : QAR


EHDL - Deelen Airbase

ULTIMO METAR :
  • 140525Z AUTO 20002KT 0450 FG FEW000 OVC160 11/11 Q1013 RED

METARs OBSOLETI :
  • 140455Z AUTO 17003KT 110V170 2200 BR SCT100 OVC180 12/12 Q1013 YLO
  • 140425Z AUTO VRB02KT 2800 BR BKN096 OVC100 12/12 Q1013 YLO
  • 140355Z AUTO 20002KT 4500 BR FEW090 OVC099 12/12 Q1013 GRN
  • 140325Z AUTO 17004KT 110V180 8000 BR SCT095 OVC100 12/12 Q1013 BLU
  • 140255Z AUTO 19005KT 140V230 9999 SCT098 BKN100 OVC180 13/12 Q1012 BLU

Previsioni scadute.



MetMap, La meteo Aeronautica in un colpo d'occhio ! - Copyright ORBIFLY Dicembre 2007 - Disclaimer

ORBIFLY MET'MAP TEAM :

Programmazione e sviluppo : Alexandra Zaïnal
Concezione e sviluppo : Baudouin d'Aumeries
Co-Programmazione e sviluppo : Marc-Olivier Méhu
Supporto tecnico e logistico : Manuel Goepfert
Aiuto per la traduzione : Arnaldo La Scala

Contatto : metmap@orbifly.com




FONTI E CREDITI :

   NOAA